Terminal Aerodrome Forecast
Issued by NWS

Current Version | Previous Version | Graphics & Text | Print | Product List | Glossary On
Versions: 1 2 3 4 5 6 7 8 9 10 11 12 13 14 15 16 17 18 19
421
FTUS41 KILN 142337
TAFLUK
TAF
KLUK 142337Z 1500/1524 VRB02KT P6SM BKN250
     FM150300 13004KT P6SM OVC070
     FM150900 15005KT 2SM -SN OVC025
     FM151100 17007KT 2SM -SN OVC018
     FM151300 17010KT P6SM VCSH OVC018
     FM151600 20011G18KT 1SM -SN BR OVC010
     FM152100 22011G18KT 5SM -SN BR OVC012=

USA.gov is the U.S. government's official web portal to all federal, state and local government web resources and services.